createdAt,value
2018-05-26T00:01:02.735Z,18.60
2018-05-26T00:04:35.978Z,18.50
2018-05-26T00:08:08.482Z,18.50
2018-05-26T00:11:40.980Z,18.50
2018-05-26T00:15:13.482Z,18.40
2018-05-26T00:18:45.965Z,18.40
2018-05-26T00:22:19.221Z,18.30
2018-05-26T00:25:51.716Z,18.30
2018-05-26T00:29:24.201Z,18.30
2018-05-26T00:32:56.692Z,18.40
2018-05-26T00:36:29.181Z,18.40
2018-05-26T00:40:01.667Z,18.40
2018-05-26T00:43:34.188Z,18.40
2018-05-26T00:47:06.675Z,18.40
2018-05-26T00:50:39.167Z,18.40
2018-05-26T00:54:11.649Z,18.30
2018-05-26T00:57:44.141Z,18.30
2018-05-26T01:01:16.631Z,18.40
2018-05-26T01:04:49.129Z,18.40
2018-05-26T01:08:21.600Z,18.40
2018-05-26T01:11:54.093Z,18.30
2018-05-26T01:15:26.592Z,18.30
2018-05-26T01:18:59.841Z,18.30
2018-05-26T01:22:32.333Z,18.30
2018-05-26T01:26:04.820Z,18.20
2018-05-26T01:29:37.304Z,18.20
2018-05-26T01:33:09.776Z,18.20
2018-05-26T01:36:42.265Z,18.10
2018-05-26T01:40:14.756Z,18.00
2018-05-26T01:43:47.224Z,18.00
2018-05-26T01:47:19.703Z,18.00
2018-05-26T01:50:52.206Z,18.00
2018-05-26T01:54:24.708Z,18.00
2018-05-26T01:57:57.197Z,18.00
2018-05-26T02:01:30.453Z,17.90
2018-05-26T02:05:02.932Z,17.90
2018-05-26T02:08:35.420Z,17.90
2018-05-26T02:12:07.893Z,17.80
2018-05-26T02:15:40.380Z,17.70
2018-05-26T02:19:12.874Z,17.70
2018-05-26T02:22:45.362Z,17.60
2018-05-26T02:26:17.850Z,17.60
2018-05-26T02:29:50.360Z,17.50
2018-05-26T02:33:23.605Z,17.50
2018-05-26T02:36:56.086Z,17.50
2018-05-26T02:40:28.566Z,17.40
2018-05-26T02:44:01.048Z,17.40
2018-05-26T02:47:33.521Z,17.30
2018-05-26T02:51:06.003Z,17.30
2018-05-26T02:54:38.490Z,17.20
2018-05-26T02:58:10.976Z,17.20
2018-05-26T03:01:43.454Z,17.20
2018-05-26T03:05:21.673Z,17.10
2018-05-26T03:08:59.882Z,17.10
2018-05-26T03:12:38.080Z,17.10
2018-05-26T03:16:12.080Z,17.10
2018-05-26T03:19:45.350Z,17.10
2018-05-26T03:23:17.829Z,17.10
2018-05-26T03:26:50.296Z,17.10
2018-05-26T03:30:22.785Z,17.10
2018-05-26T03:33:55.270Z,17.00
2018-05-26T03:37:27.743Z,16.90
2018-05-26T03:41:00.238Z,16.90
2018-05-26T03:44:32.726Z,16.90
2018-05-26T03:48:05.219Z,16.90
2018-05-26T03:51:37.696Z,16.90
2018-05-26T03:59:19.160Z,16.90
2018-05-26T04:02:51.652Z,16.90
2018-05-26T04:06:24.145Z,16.90
2018-05-26T04:09:56.640Z,17.00
2018-05-26T04:13:29.109Z,17.10
2018-05-26T04:17:01.580Z,17.10
2018-05-26T04:20:34.068Z,17.00
2018-05-26T04:24:06.553Z,17.10
2018-05-26T04:27:39.031Z,17.10
2018-05-26T04:31:11.524Z,17.00
2018-05-26T04:34:44.000Z,16.90
2018-05-26T04:38:16.480Z,16.90
2018-05-26T04:41:48.956Z,16.90
2018-05-26T04:45:21.435Z,16.80
2018-05-26T04:48:53.924Z,16.80
2018-05-26T04:52:26.396Z,16.90
2018-05-26T04:55:58.886Z,17.10
2018-05-26T04:59:31.368Z,17.20
2018-05-26T05:03:03.849Z,17.40
2018-05-26T05:06:36.333Z,17.60
2018-05-26T05:10:08.821Z,17.70
2018-05-26T05:13:41.299Z,17.80
2018-05-26T05:17:13.787Z,17.90
2018-05-26T05:20:46.265Z,18.00
2018-05-26T05:24:18.782Z,18.10
2018-05-26T05:27:51.273Z,18.20
2018-05-26T05:31:23.740Z,18.30
2018-05-26T05:34:56.255Z,18.50
2018-05-26T05:38:29.504Z,18.80
2018-05-26T05:42:01.985Z,18.80
2018-05-26T05:45:34.485Z,18.90
2018-05-26T05:49:06.969Z,19.00
2018-05-26T05:52:39.450Z,19.10
2018-05-26T05:56:11.969Z,19.10
2018-05-26T05:59:44.437Z,19.20
2018-05-26T06:03:17.682Z,19.50
2018-05-26T06:06:50.181Z,19.50
2018-05-26T06:10:22.662Z,19.60
2018-05-26T06:13:55.317Z,19.70
2018-05-26T06:17:27.842Z,19.80
2018-05-26T06:21:00.383Z,19.90
2018-05-26T06:24:32.865Z,20.00
2018-05-26T06:28:05.359Z,20.20
2018-05-26T06:31:37.875Z,20.30
2018-05-26T06:35:10.373Z,20.40
2018-05-26T06:38:42.856Z,20.50
2018-05-26T06:42:15.335Z,20.60
2018-05-26T06:45:47.809Z,20.70
2018-05-26T06:49:20.273Z,20.70
2018-05-26T06:52:52.753Z,20.80
2018-05-26T06:56:25.229Z,21.00
2018-05-26T06:59:57.694Z,21.10
2018-05-26T07:03:30.180Z,21.20
2018-05-26T07:07:02.661Z,21.30
2018-05-26T07:10:35.149Z,21.40
2018-05-26T07:14:07.629Z,21.40
2018-05-26T07:17:40.104Z,21.60
2018-05-26T07:21:12.584Z,21.70
2018-05-26T07:24:45.124Z,21.70
2018-05-26T07:28:17.568Z,21.70
2018-05-26T07:31:50.054Z,21.70
2018-05-26T07:35:22.632Z,21.80
2018-05-26T07:38:55.157Z,21.90
2018-05-26T07:42:27.644Z,22.00
2018-05-26T07:46:00.894Z,22.20
2018-05-26T07:49:33.364Z,22.20
2018-05-26T07:53:05.874Z,22.30
2018-05-26T07:56:38.422Z,22.40
2018-05-26T08:00:10.955Z,22.50
2018-05-26T08:03:43.384Z,22.70
2018-05-26T08:07:15.865Z,22.80
2018-05-26T08:10:48.344Z,22.90
2018-05-26T08:14:20.824Z,23.10
2018-05-26T08:17:53.291Z,23.30
2018-05-26T08:21:25.772Z,23.40
2018-05-26T08:24:58.263Z,23.60
2018-05-26T08:28:30.728Z,23.70
2018-05-26T08:32:03.976Z,23.90
2018-05-26T08:35:36.451Z,23.90
2018-05-26T08:39:08.921Z,24.00
2018-05-26T08:42:41.398Z,24.10
2018-05-26T08:46:13.871Z,24.30
2018-05-26T08:49:46.351Z,24.40
2018-05-26T08:53:18.821Z,24.40
2018-05-26T08:56:51.304Z,24.60
2018-05-26T09:00:23.803Z,24.70
2018-05-26T09:03:56.283Z,24.90
2018-05-26T09:07:28.760Z,24.90
2018-05-26T09:11:01.240Z,25.00
2018-05-26T09:14:33.727Z,25.20
2018-05-26T09:18:06.215Z,25.40
2018-05-26T09:21:38.685Z,25.50
2018-05-26T09:25:11.255Z,25.60
2018-05-26T09:28:43.661Z,25.80
2018-05-26T09:32:16.132Z,25.90
2018-05-26T09:35:48.618Z,25.90
2018-05-26T09:39:21.105Z,25.90
2018-05-26T09:42:53.588Z,25.90
2018-05-26T09:46:26.053Z,26.00
2018-05-26T09:49:58.534Z,26.10
2018-05-26T09:53:31.017Z,26.20
2018-05-26T09:57:04.243Z,26.30
2018-05-26T10:00:36.720Z,26.30
2018-05-26T10:04:09.202Z,26.40
2018-05-26T10:07:41.679Z,26.50
2018-05-26T10:11:14.165Z,26.60
2018-05-26T10:14:46.644Z,26.70
2018-05-26T10:18:19.128Z,26.80
2018-05-26T10:21:51.592Z,26.80
2018-05-26T10:25:24.076Z,26.90
2018-05-26T10:28:56.555Z,26.80
2018-05-26T10:32:29.040Z,26.70
2018-05-26T10:36:01.519Z,26.90
2018-05-26T10:39:34.001Z,27.10
2018-05-26T10:43:06.484Z,27.30
2018-05-26T10:46:38.981Z,27.40
2018-05-26T10:50:11.456Z,27.50
2018-05-26T10:53:43.955Z,27.60
2018-05-26T10:57:16.440Z,27.50
2018-05-26T11:00:48.919Z,27.40
2018-05-26T11:04:21.444Z,27.50
2018-05-26T11:07:53.885Z,27.60
2018-05-26T11:11:26.365Z,27.50
2018-05-26T11:14:58.842Z,27.50
2018-05-26T11:18:31.328Z,27.70
2018-05-26T11:22:03.808Z,27.80
2018-05-26T11:25:36.300Z,27.70
2018-05-26T11:29:08.772Z,27.80
2018-05-26T11:32:41.248Z,27.80
2018-05-26T11:36:13.724Z,27.90
2018-05-26T11:39:46.196Z,28.00
2018-05-26T11:43:18.696Z,28.10
2018-05-26T11:46:51.182Z,28.30
2018-05-26T11:50:23.660Z,28.20
2018-05-26T11:53:56.140Z,28.10
2018-05-26T11:57:28.624Z,28.00
2018-05-26T12:01:01.105Z,27.90
2018-05-26T12:04:33.568Z,27.80
2018-05-26T12:08:06.048Z,27.80
2018-05-26T12:11:38.533Z,28.00
2018-05-26T12:15:11.008Z,28.00
2018-05-26T12:18:43.508Z,28.00
2018-05-26T12:22:15.996Z,28.00
2018-05-26T12:25:48.484Z,27.90
2018-05-26T12:29:20.956Z,27.70
2018-05-26T12:32:53.435Z,27.60
2018-05-26T12:36:25.911Z,27.50
2018-05-26T12:39:58.432Z,27.40
2018-05-26T12:43:30.876Z,27.40
2018-05-26T12:47:04.438Z,27.40
2018-05-26T12:50:36.932Z,27.50
2018-05-26T12:54:09.400Z,27.60
2018-05-26T12:57:41.892Z,27.60
2018-05-26T13:01:15.140Z,27.60
2018-05-26T13:04:47.678Z,27.70
2018-05-26T13:08:20.932Z,27.50
2018-05-26T13:11:53.432Z,27.50
2018-05-26T13:15:25.917Z,27.40
2018-05-26T13:18:58.391Z,27.40
2018-05-26T13:22:31.041Z,27.30
2018-05-26T13:26:03.524Z,27.30
2018-05-26T13:29:36.001Z,27.50
2018-05-26T13:33:08.487Z,27.60
2018-05-26T13:36:40.981Z,27.70
2018-05-26T13:40:13.645Z,27.70
2018-05-26T13:43:46.128Z,27.70
2018-05-26T13:47:18.622Z,27.70
2018-05-26T13:50:51.189Z,27.80
2018-05-26T13:54:23.603Z,27.80
2018-05-26T13:57:56.080Z,27.90
2018-05-26T14:01:28.565Z,27.90
2018-05-26T14:05:01.059Z,27.80
2018-05-26T14:08:33.537Z,27.70
2018-05-26T14:12:06.017Z,27.70
2018-05-26T14:15:38.496Z,27.60
2018-05-26T14:19:10.980Z,27.60
2018-05-26T14:22:43.452Z,27.60
2018-05-26T14:26:15.925Z,27.60
2018-05-26T14:29:48.421Z,27.50
2018-05-26T14:33:20.908Z,27.50
2018-05-26T14:36:53.375Z,27.50
2018-05-26T14:40:25.879Z,27.50
2018-05-26T14:43:58.352Z,27.60
2018-05-26T14:47:30.815Z,27.60
2018-05-26T14:51:03.305Z,27.60
2018-05-26T14:54:35.790Z,27.60
2018-05-26T14:58:08.280Z,27.80
2018-05-26T15:01:40.752Z,27.80
2018-05-26T15:05:13.236Z,28.00
2018-05-26T15:08:45.773Z,28.00
2018-05-26T15:12:18.200Z,28.10
2018-05-26T15:15:50.680Z,28.30
2018-05-26T15:19:23.151Z,28.50
2018-05-26T15:22:55.635Z,28.70
2018-05-26T15:26:28.100Z,28.80
2018-05-26T15:30:00.596Z,28.90
2018-05-26T15:33:33.080Z,29.10
2018-05-26T15:37:05.565Z,29.10
2018-05-26T15:40:38.028Z,29.20
2018-05-26T15:44:10.516Z,29.20
2018-05-26T15:47:43.017Z,29.10
2018-05-26T15:51:15.484Z,29.10
2018-05-26T15:54:47.964Z,29.20
2018-05-26T15:58:20.445Z,29.20
2018-05-26T16:01:52.927Z,29.40
2018-05-26T16:05:25.401Z,29.50
2018-05-26T16:08:57.880Z,29.70
2018-05-26T16:12:30.373Z,29.90
2018-05-26T16:16:02.890Z,29.80
2018-05-26T16:19:35.363Z,29.70
2018-05-26T16:23:08.607Z,29.70
2018-05-26T16:26:41.852Z,29.70
2018-05-26T16:30:14.332Z,29.70
2018-05-26T16:33:46.815Z,29.70
2018-05-26T16:37:19.301Z,29.70
2018-05-26T16:40:51.768Z,29.60
2018-05-26T16:44:24.248Z,29.40
2018-05-26T16:47:56.724Z,29.30
2018-05-26T16:51:29.206Z,29.10
2018-05-26T16:55:01.685Z,29.00
2018-05-26T16:58:34.248Z,28.90
2018-05-26T17:02:06.700Z,28.70
2018-05-26T17:05:39.184Z,28.60
2018-05-26T17:09:11.652Z,28.50
2018-05-26T17:12:44.136Z,28.40
2018-05-26T17:16:16.621Z,28.30
2018-05-26T17:19:49.100Z,28.10
2018-05-26T17:23:21.581Z,28.10
2018-05-26T17:26:54.056Z,28.00
2018-05-26T17:30:26.541Z,27.90
2018-05-26T17:33:59.012Z,27.90
2018-05-26T17:37:31.493Z,27.80
2018-05-26T17:41:03.974Z,27.60
2018-05-26T17:44:36.445Z,27.60
2018-05-26T17:48:08.928Z,27.40
2018-05-26T17:51:41.434Z,27.30
2018-05-26T17:55:13.917Z,27.20
2018-05-26T17:58:46.382Z,27.10
2018-05-26T18:02:18.863Z,27.00
2018-05-26T18:05:51.340Z,26.90
2018-05-26T18:09:24.577Z,26.80
2018-05-26T18:12:57.056Z,26.80
2018-05-26T18:16:29.547Z,26.70
2018-05-26T18:20:02.036Z,26.70
2018-05-26T18:23:34.504Z,26.60
2018-05-26T18:27:06.997Z,26.50
2018-05-26T18:30:39.475Z,26.50
2018-05-26T18:34:11.981Z,26.40
2018-05-26T18:37:44.464Z,26.20
2018-05-26T18:41:17.033Z,26.10
2018-05-26T18:44:50.281Z,25.90
2018-05-26T18:48:22.772Z,25.90
2018-05-26T18:51:55.270Z,25.90
2018-05-26T18:55:27.763Z,25.80
2018-05-26T18:59:00.268Z,25.70
2018-05-26T19:02:33.514Z,25.50
2018-05-26T19:06:05.989Z,25.50
2018-05-26T19:09:38.475Z,25.40
2018-05-26T19:13:11.299Z,25.40
2018-05-26T19:16:43.789Z,25.20
2018-05-26T19:20:17.089Z,25.10
2018-05-26T19:23:50.356Z,25.10
2018-05-26T19:27:22.841Z,25.10
2018-05-26T19:30:55.325Z,25.00
2018-05-26T19:34:27.824Z,24.90
2018-05-26T19:38:00.308Z,24.80
2018-05-26T19:41:32.791Z,24.70
2018-05-26T19:45:05.284Z,24.60
2018-05-26T19:48:38.729Z,24.40
2018-05-26T19:52:11.992Z,24.40
2018-05-26T19:55:45.252Z,24.30
2018-05-26T19:59:17.745Z,24.30
2018-05-26T20:02:50.255Z,24.20
2018-05-26T20:06:22.746Z,24.20
2018-05-26T20:09:57.177Z,24.00
2018-05-26T20:13:30.485Z,23.90
2018-05-26T20:17:03.832Z,23.80
2018-05-26T20:20:36.316Z,23.80
2018-05-26T20:24:08.827Z,23.80
2018-05-26T20:27:42.246Z,23.60
2018-05-26T20:31:15.508Z,23.50
2018-05-26T20:34:47.994Z,23.50
2018-05-26T20:38:20.489Z,23.50
2018-05-26T20:41:52.972Z,23.40
2018-05-26T20:45:25.460Z,23.30
2018-05-26T20:48:58.795Z,23.20
2018-05-26T20:52:31.293Z,23.20
2018-05-26T20:56:03.768Z,23.10
2018-05-26T20:59:36.324Z,23.00
2018-05-26T21:03:09.573Z,22.90
2018-05-26T21:06:42.064Z,22.90
2018-05-26T21:10:14.634Z,22.80
2018-05-26T21:13:47.135Z,22.80
2018-05-26T21:17:19.637Z,22.80
2018-05-26T21:20:52.121Z,22.80
2018-05-26T21:24:24.613Z,22.80
2018-05-26T21:27:57.871Z,22.70
2018-05-26T21:31:30.352Z,22.70
2018-05-26T21:35:02.841Z,22.60
2018-05-26T21:38:35.341Z,22.60
2018-05-26T21:42:07.827Z,22.50
2018-05-26T21:45:40.312Z,22.50
2018-05-26T21:49:12.838Z,22.40
2018-05-26T21:52:45.369Z,22.30
2018-05-26T21:56:17.965Z,22.20
2018-05-26T21:59:50.455Z,22.20
2018-05-26T22:03:23.744Z,22.00
2018-05-26T22:06:57.000Z,22.00
2018-05-26T22:10:29.615Z,21.90
2018-05-26T22:14:02.108Z,21.90
2018-05-26T22:17:34.594Z,21.90
2018-05-26T22:21:07.075Z,21.90
2018-05-26T22:24:40.324Z,21.80
2018-05-26T22:28:12.816Z,21.80
2018-05-26T22:31:45.304Z,21.70
2018-05-26T22:35:17.796Z,21.70
2018-05-26T22:38:50.400Z,21.60
2018-05-26T22:42:22.979Z,21.60
2018-05-26T22:45:55.500Z,21.60
2018-05-26T22:49:28.000Z,21.60
2018-05-26T22:53:00.493Z,21.50
2018-05-26T22:56:32.980Z,21.50
2018-05-26T23:00:05.473Z,21.40
2018-05-26T23:03:38.094Z,21.40
2018-05-26T23:07:11.349Z,21.30
2018-05-26T23:10:44.223Z,21.30
2018-05-26T23:14:16.737Z,21.30
2018-05-26T23:17:49.592Z,21.10
2018-05-26T23:21:22.069Z,21.00
2018-05-26T23:24:54.573Z,20.90
2018-05-26T23:28:27.685Z,20.80
2018-05-26T23:32:00.437Z,20.70
2018-05-26T23:35:33.068Z,20.60
2018-05-26T23:39:05.760Z,20.60
2018-05-26T23:42:39.073Z,20.50
2018-05-26T23:46:12.406Z,20.50
2018-05-26T23:49:44.933Z,20.50
2018-05-26T23:53:18.220Z,20.50
2018-05-26T23:56:50.711Z,20.50
